Soaring Guidance
Issued by NWS Reno, NV

Home | Current Version | Previous Version | Text Only | Print | Product List | Glossary On
Versions: 1 2 3 4 5 6 7 8 9 10 11 12 13 14 15 16
000
UXUS97 KREV 251333
SRGREV

SOARING FORECAST
NATIONAL WEATHER SERVICE - RENO NV
700 AM PDT SUN JUN 25 2017

THIS SOARING FORECAST IS FOR THE EASTERN SIERRA AND WESTERN NEVADA
WITH SPECIFIC INDICES FOR THE GREATER RENO AREA.

THIS FORECAST IS PREPARED DAILY BY 700 AM AND IS NOT UPDATED.

FOR CURRENT FLIGHT CONDITIONS...FORECASTS...AND ADVISORIES...ACCESS
YOUR LOCAL BRIEFING OUTLET OR FLIGHT SERVICE STATION.

*******************************************************************
FORECASTED LOCAL INDICES FOR RENO:        TODAY     YESTERDAY
FORECASTED MAX TEMP AT RENO (DEG F).....     96          99
FORECASTED TRIGGER TEMPERATURE (DEG F)..     80          80
   EXCEEDED YESTERDAY BY 955 AM PDT
FORECASTED MAXIMUM ALTITUDE (FT MSL)....  13900       13900
FORECASTED SOARING INDEX (FPM)..........    717         717
FORECASTED K-INDEX.........VALID 18Z....     12          14
FORECASTED K-INDEX.........VALID 00Z....     28          11
FORECASTED LIFTED INDEX....VALID 18Z....      2           5
FORECASTED LIFTED INDEX....VALID 00Z....     -2           3

AFTERNOON WINDS ALOFT FORECAST
MSL (FT) WIND/TEMP
9000  2808/+19
10000 9905/+16
12000 9900/+11
14000 9902/+04
16000 9904/-02
18000 1911/-09
24000 2417/-20
30000 2527/-36
34000 2532/-43
39000 2631/-52

SLIDE MOUNTAIN DATA:
     DATE       TIME     TEMP  DEWPT   RH         WIND (MPH)
                        (F)   (F)           | DIR  SPEED GUST
2017-06-25    05:20      59    32     24    | 011   16   18
2017-06-25    05:00      59    32     24    | 013   18   22
2017-06-25    04:50      59    33     26    | 012   17   21
2017-06-25    04:30      59    35     29    | 021   16   18

RENO TAF FORECAST:
KRNO 251120Z 2512/2612 VRB04KT P6SM FEW100 BKN180
     FM251800 16007KT P6SM SCT090 SCT180
     FM252300 27011G20KT P6SM FEW090 SCT180
     FM260700 VRB04KT P6SM SKC

CARSON CITY TAF FORECAST:
KCXP 251120Z 2512/2612 VRB04KT P6SM FEW090 BKN180
     FM251700 09008KT P6SM SCT080 SCT180
     FM252200 25010G18KT P6SM FEW100 SCT180
     FM260300 VRB04KT P6SM SKC

OUTLOOK FOR THE RENO-CARSON CITY-MINDEN AREA:
.MONDAY...SUNNY. HIGHS 93 TO 98. LIGHT WINDS BECOMING SOUTHWEST
10 TO 20 MPH WITH GUSTS UP TO 35 MPH IN THE AFTERNOON.

SUNRISE AND SUNSET
JUNE 25 2017..........SUNRISE   533 AM PDT   SUNSET   830 PM PDT
JUNE 26 2017..........SUNRISE   534 AM PDT   SUNSET   830 PM PDT


USA.gov is the U.S. government's official web portal to all federal, state and local government web resources and services.